Time;durP1;ratioP1;P1;durP2;ratioP2;P2;SDS_P1;SDS_P2;PMS_P1;PMS_P2;Temp;Humidity;BMP_temperature;BMP_pressure;BME280_temperature;BME280_humidity;BME280_pressure;Samples;Min_cycle;Max_cycle;Signal;HPM_P1;HPM_P2
2022/03/29 00:04:10;;;;;;;64.20;37.38;;;;;;;;;;10276101;28;20412;-79
2022/03/29 00:09:13;;;;;;;63.60;36.43;;;;;;;;;;10272422;28;20413;-79
2022/03/29 00:14:15;;;;;;;60.77;33.93;;;;;;;;;;10272708;28;20407;-80
2022/03/29 00:19:17;;;;;;;60.78;34.78;;;;;;;;;;10276788;28;20576;-79
2022/03/29 00:24:20;;;;;;;60.17;34.90;;;;;;;;;;10259574;28;20422;-79
2022/03/29 00:29:22;;;;;;;62.10;34.87;;;;;;;;;;10295254;28;20402;-79
2022/03/29 00:34:24;;;;;;;60.55;35.72;;;;;;;;;;10270645;28;20418;-80
2022/03/29 00:39:27;;;;;;;59.38;34.60;;;;;;;;;;10273061;28;20417;-78
2022/03/29 00:44:33;;;;;;;66.80;37.03;;;;;;;;;;10271890;28;20501;-82
2022/03/29 00:49:36;;;;;;;67.65;36.53;;;;;;;;;;10291101;28;20712;-78
2022/03/29 00:54:42;;;;;;;68.50;37.20;;;;;;;;;;10354032;28;20944;-79
2022/03/29 00:59:46;;;;;;;67.85;36.67;;;;;;;;;;10310887;28;20418;-79
2022/03/29 01:04:47;;;;;;;63.70;35.95;;;;;;;;;;10343926;28;20423;-79
2022/03/29 01:09:51;;;;;;;69.53;36.75;;;;;;;;;;10328400;28;20413;-79
2022/03/29 01:14:53;;;;;;;64.00;36.15;;;;;;;;;;10313736;28;20423;-79
2022/03/29 01:19:58;;;;;;;63.10;35.90;;;;;;;;;;10312264;28;20523;-79
2022/03/29 01:25:02;;;;;;;59.20;35.40;;;;;;;;;;10314544;28;20494;-80
2022/03/29 01:30:04;;;;;;;59.65;35.60;;;;;;;;;;10314334;28;20430;-79
2022/03/29 01:35:07;;;;;;;58.13;35.55;;;;;;;;;;10294149;28;20858;-80
2022/03/29 01:40:13;;;;;;;57.60;36.05;;;;;;;;;;10310326;28;20492;-79
2022/03/29 01:45:15;;;;;;;56.60;35.58;;;;;;;;;;10313025;28;20492;-79
2022/03/29 01:50:17;;;;;;;54.40;35.50;;;;;;;;;;10302620;28;20519;-82
2022/03/29 01:55:22;;;;;;;57.77;37.07;;;;;;;;;;10313472;28;20431;-79
2022/03/29 02:00:33;;;;;;;55.30;35.50;;;;;;;;;;10311392;28;20582;-80
2022/03/29 02:05:35;;;;;;;54.50;36.00;;;;;;;;;;10329472;28;20940;-80
2022/03/29 02:10:39;;;;;;;52.72;33.65;;;;;;;;;;10334767;28;20925;-80
2022/03/29 02:15:41;;;;;;;54.17;34.72;;;;;;;;;;10322901;28;20466;-79
2022/03/29 02:20:43;;;;;;;51.80;33.70;;;;;;;;;;10338188;28;20409;-79
2022/03/29 02:25:47;;;;;;;52.85;34.10;;;;;;;;;;10340920;28;20570;-80
2022/03/29 02:30:49;;;;;;;52.95;34.65;;;;;;;;;;10342303;28;20537;-79
2022/03/29 02:35:50;;;;;;;50.05;34.30;;;;;;;;;;10339452;28;20459;-79
2022/03/29 02:40:57;;;;;;;54.33;34.50;;;;;;;;;;10341604;28;20411;-79
2022/03/29 02:45:59;;;;;;;51.70;34.80;;;;;;;;;;10327369;28;20494;-81
2022/03/29 02:51:01;;;;;;;49.47;34.00;;;;;;;;;;10337298;28;20503;-79
2022/03/29 02:56:05;;;;;;;47.85;33.53;;;;;;;;;;10339294;28;20471;-79
2022/03/29 03:01:06;;;;;;;51.83;34.33;;;;;;;;;;10337488;28;20409;-81
2022/03/29 03:06:08;;;;;;;47.80;33.63;;;;;;;;;;10332773;28;20419;-81
2022/03/29 03:11:11;;;;;;;53.85;34.67;;;;;;;;;;10339230;28;20417;-81
2022/03/29 03:16:13;;;;;;;56.90;36.33;;;;;;;;;;10338061;28;20516;-80
2022/03/29 03:21:15;;;;;;;58.03;35.35;;;;;;;;;;10335518;28;20419;-81
2022/03/29 03:26:18;;;;;;;59.67;36.70;;;;;;;;;;10338542;28;20495;-79
2022/03/29 03:31:20;;;;;;;58.30;36.03;;;;;;;;;;10338198;28;20424;-81
2022/03/29 03:36:22;;;;;;;58.03;36.20;;;;;;;;;;10335474;28;20421;-81
2022/03/29 03:41:25;;;;;;;57.72;36.17;;;;;;;;;;10337738;28;20495;-79
2022/03/29 03:46:27;;;;;;;59.58;36.05;;;;;;;;;;10335997;28;20870;-81
2022/03/29 03:51:28;;;;;;;55.17;35.10;;;;;;;;;;10335701;28;20508;-79
2022/03/29 03:56:32;;;;;;;52.33;35.03;;;;;;;;;;10337497;28;20425;-79
2022/03/29 04:01:35;;;;;;;51.35;34.20;;;;;;;;;;10336100;28;20818;-78
2022/03/29 04:06:37;;;;;;;50.60;33.80;;;;;;;;;;10323747;28;20428;-79
2022/03/29 04:11:40;;;;;;;51.92;33.47;;;;;;;;;;10313685;28;20492;-79
2022/03/29 04:16:42;;;;;;;49.55;33.80;;;;;;;;;;10313162;28;20429;-79
2022/03/29 04:21:44;;;;;;;49.45;32.83;;;;;;;;;;10349265;28;20482;-79
2022/03/29 04:26:48;;;;;;;50.27;33.40;;;;;;;;;;10326122;28;20584;-79
2022/03/29 04:31:52;;;;;;;50.77;33.13;;;;;;;;;;10313186;28;20413;-80
2022/03/29 04:36:53;;;;;;;54.88;35.42;;;;;;;;;;10312855;28;20520;-79
2022/03/29 04:41:57;;;;;;;54.97;34.93;;;;;;;;;;10313251;28;20495;-79
2022/03/29 04:46:59;;;;;;;52.72;33.97;;;;;;;;;;10310821;28;20507;-80
2022/03/29 04:52:01;;;;;;;53.88;35.72;;;;;;;;;;10312352;28;20503;-79
2022/03/29 04:57:05;;;;;;;51.97;34.00;;;;;;;;;;10313096;28;20429;-80
2022/03/29 05:02:07;;;;;;;49.15;33.80;;;;;;;;;;10308821;28;21497;-80
2022/03/29 05:07:08;;;;;;;55.03;36.05;;;;;;;;;;10311143;28;20415;-79
2022/03/29 05:12:12;;;;;;;52.33;34.60;;;;;;;;;;10313692;28;20416;-81
2022/03/29 05:17:13;;;;;;;52.50;34.00;;;;;;;;;;10297901;28;20847;-80
2022/03/29 05:22:15;;;;;;;55.57;35.37;;;;;;;;;;10289632;28;20489;-80
2022/03/29 05:27:18;;;;;;;63.38;38.45;;;;;;;;;;10292488;28;20424;-82
2022/03/29 05:32:21;;;;;;;66.95;40.53;;;;;;;;;;10301585;28;20525;-81
2022/03/29 05:37:23;;;;;;;68.37;40.07;;;;;;;;;;10306292;28;20460;-81
2022/03/29 05:42:26;;;;;;;65.18;39.80;;;;;;;;;;10309570;28;20754;-80
2022/03/29 05:52:47;;;;;;;63.87;38.60;;;;;;;;;;10308599;28;21077;-82
2022/03/29 05:57:51;;;;;;;62.45;37.92;;;;;;;;;;10319179;28;20508;-81
2022/03/29 06:02:54;;;;;;;63.33;37.28;;;;;;;;;;10316512;28;20415;-81
2022/03/29 06:07:56;;;;;;;62.70;37.95;;;;;;;;;;10316356;28;20408;-82
2022/03/29 06:12:59;;;;;;;69.78;38.72;;;;;;;;;;10317970;28;20821;-81
2022/03/29 06:18:01;;;;;;;61.33;37.35;;;;;;;;;;10319117;28;20444;-82
2022/03/29 06:23:03;;;;;;;59.03;37.57;;;;;;;;;;10318157;28;20404;-81
2022/03/29 06:28:06;;;;;;;60.28;36.30;;;;;;;;;;10317941;28;20407;-82
2022/03/29 06:33:09;;;;;;;59.60;35.73;;;;;;;;;;10317071;28;20658;-82
2022/03/29 06:38:10;;;;;;;58.25;36.13;;;;;;;;;;10317584;28;20520;-82
2022/03/29 06:43:14;;;;;;;65.05;36.90;;;;;;;;;;10317031;28;20491;-82
2022/03/29 06:48:16;;;;;;;60.60;38.97;;;;;;;;;;10313455;28;21036;-81
2022/03/29 06:53:17;;;;;;;59.08;37.50;;;;;;;;;;10321060;28;21072;-81
2022/03/29 06:58:21;;;;;;;55.50;36.35;;;;;;;;;;10321182;28;20421;-81
2022/03/29 07:03:23;;;;;;;58.72;36.60;;;;;;;;;;10315893;28;20415;-81
2022/03/29 07:08:25;;;;;;;53.60;35.40;;;;;;;;;;10316734;28;20409;-82
2022/03/29 07:13:28;;;;;;;54.15;35.60;;;;;;;;;;10316789;28;20411;-81
2022/03/29 07:18:31;;;;;;;53.72;35.45;;;;;;;;;;10313089;28;20423;-81
2022/03/29 07:23:34;;;;;;;59.70;36.13;;;;;;;;;;10320608;28;20492;-81
2022/03/29 07:28:37;;;;;;;51.53;34.95;;;;;;;;;;10320557;28;20417;-81
2022/03/29 07:33:39;;;;;;;43.03;32.28;;;;;;;;;;10319131;28;20415;-82
2022/03/29 07:38:41;;;;;;;48.47;33.65;;;;;;;;;;10314051;28;20429;-81
2022/03/29 07:43:44;;;;;;;49.77;34.03;;;;;;;;;;10314085;28;20409;-82
2022/03/29 07:48:46;;;;;;;42.47;29.77;;;;;;;;;;10311362;28;20413;-81
2022/03/29 07:53:48;;;;;;;39.47;26.70;;;;;;;;;;10320328;28;20480;-81
2022/03/29 07:58:51;;;;;;;45.28;31.00;;;;;;;;;;10319890;28;20472;-82
2022/03/29 08:03:53;;;;;;;44.58;31.67;;;;;;;;;;10312367;28;20755;-81
2022/03/29 08:08:55;;;;;;;43.60;31.33;;;;;;;;;;10320549;28;20437;-81
2022/03/29 08:13:58;;;;;;;43.58;30.40;;;;;;;;;;10319592;28;21357;-82
2022/03/29 08:19:00;;;;;;;40.85;30.92;;;;;;;;;;10315090;28;20521;-81
2022/03/29 08:24:02;;;;;;;44.40;31.87;;;;;;;;;;10312211;28;20888;-81
2022/03/29 08:29:05;;;;;;;44.75;31.88;;;;;;;;;;10319312;28;20407;-82
2022/03/29 08:34:07;;;;;;;37.03;26.95;;;;;;;;;;10318639;28;20866;-82
2022/03/29 08:39:09;;;;;;;36.30;26.40;;;;;;;;;;10319473;28;20909;-82
2022/03/29 08:44:13;;;;;;;26.60;21.38;;;;;;;;;;10311561;28;20408;-81
2022/03/29 08:49:16;;;;;;;31.95;24.70;;;;;;;;;;10291011;28;20421;-82
2022/03/29 08:54:19;;;;;;;31.40;24.75;;;;;;;;;;10275076;28;20501;-82
2022/03/29 08:59:25;;;;;;;33.42;25.38;;;;;;;;;;10272000;28;20438;-82
2022/03/29 09:04:29;;;;;;;30.88;23.73;;;;;;;;;;10275033;28;20497;-81
2022/03/29 09:09:32;;;;;;;21.48;16.20;;;;;;;;;;10279669;28;20417;-82
2022/03/29 09:14:51;;;;;;;28.88;21.65;;;;;;;;;;10278947;28;20417;-81
2022/03/29 09:19:55;;;;;;;28.58;22.55;;;;;;;;;;10273068;28;20712;-82
2022/03/29 09:24:57;;;;;;;26.92;21.48;;;;;;;;;;10279216;28;20403;-81
2022/03/29 09:30:12;;;;;;;28.63;20.63;;;;;;;;;;10278617;28;20981;-82
2022/03/29 09:35:15;;;;;;;27.23;20.92;;;;;;;;;;10276760;28;20414;-82
2022/03/29 09:40:17;;;;;;;26.25;21.38;;;;;;;;;;10270941;28;20957;-82
2022/03/29 09:45:39;;;;;;;30.20;23.20;;;;;;;;;;10270691;28;20592;-81
2022/03/29 09:50:40;;;;;;;28.48;22.90;;;;;;;;;;10270146;28;20506;-82
2022/03/29 09:55:42;;;;;;;32.33;22.67;;;;;;;;;;10275832;28;20504;-82
2022/03/29 10:00:47;;;;;;;28.75;22.23;;;;;;;;;;10278421;28;21303;-82
2022/03/29 10:05:50;;;;;;;25.90;20.23;;;;;;;;;;10271009;28;20529;-82
2022/03/29 10:10:52;;;;;;;30.30;22.33;;;;;;;;;;10271178;28;20410;-82
2022/03/29 10:15:56;;;;;;;28.27;20.30;;;;;;;;;;10270099;28;20485;-82
2022/03/29 10:21:00;;;;;;;30.02;20.15;;;;;;;;;;10270328;28;20432;-82
2022/03/29 10:26:03;;;;;;;25.10;19.60;;;;;;;;;;10269494;28;20871;-82
2022/03/29 10:31:26;;;;;;;27.75;20.30;;;;;;;;;;10271170;28;20413;-83
2022/03/29 10:36:28;;;;;;;26.65;19.80;;;;;;;;;;10269798;28;20448;-81
2022/03/29 10:41:52;;;;;;;27.37;20.67;;;;;;;;;;10276907;28;20427;-82
2022/03/29 10:46:56;;;;;;;30.63;20.80;;;;;;;;;;10278655;28;20429;-82
2022/03/29 10:52:33;;;;;;;28.75;20.48;;;;;;;;;;10316212;28;20899;-82
2022/03/29 10:57:36;;;;;;;23.52;19.17;;;;;;;;;;10360907;28;20901;-82
2022/03/29 11:02:39;;;;;;;23.77;19.07;;;;;;;;;;10361349;28;20425;-82
2022/03/29 11:08:11;;;;;;;22.80;18.38;;;;;;;;;;10356946;28;20407;-81
2022/03/29 11:13:31;;;;;;;28.45;19.58;;;;;;;;;;10356320;28;20402;-82
2022/03/29 11:18:39;;;;;;;23.95;18.42;;;;;;;;;;10363425;28;20816;-82
2022/03/29 11:23:45;;;;;;;24.10;17.90;;;;;;;;;;10355354;28;20410;-82
2022/03/29 11:28:49;;;;;;;22.30;17.80;;;;;;;;;;10364039;28;20409;-82
2022/03/29 11:33:56;;;;;;;24.85;18.23;;;;;;;;;;10362805;28;20473;-82
2022/03/29 11:38:58;;;;;;;24.87;18.40;;;;;;;;;;10363794;28;20419;-82
2022/03/29 11:44:04;;;;;;;23.75;17.42;;;;;;;;;;10363612;28;20437;-82
2022/03/29 11:49:08;;;;;;;21.45;17.58;;;;;;;;;;10361455;28;20915;-82
2022/03/29 11:54:11;;;;;;;21.93;16.87;;;;;;;;;;10357369;28;20418;-81
2022/03/29 11:59:16;;;;;;;20.73;17.40;;;;;;;;;;10351743;28;20426;-82
2022/03/29 12:04:21;;;;;;;22.08;17.33;;;;;;;;;;10356544;28;20431;-82
2022/03/29 12:09:26;;;;;;;19.33;16.67;;;;;;;;;;10358498;28;20399;-82
2022/03/29 12:14:29;;;;;;;21.25;17.00;;;;;;;;;;10359003;28;20760;-82
2022/03/29 12:19:35;;;;;;;21.85;17.42;;;;;;;;;;10355363;28;20512;-81
2022/03/29 12:24:39;;;;;;;20.43;16.90;;;;;;;;;;10359712;28;20800;-81
2022/03/29 12:29:44;;;;;;;20.80;16.47;;;;;;;;;;10359665;28;20499;-80
2022/03/29 12:34:55;;;;;;;21.67;16.93;;;;;;;;;;10364271;28;20415;-81
2022/03/29 12:39:59;;;;;;;19.48;16.40;;;;;;;;;;10365828;28;20433;-81
2022/03/29 12:45:03;;;;;;;26.77;17.95;;;;;;;;;;10361381;28;20981;-82
2022/03/29 12:50:08;;;;;;;20.85;17.05;;;;;;;;;;10362912;28;20472;-81
2022/03/29 12:55:16;;;;;;;22.60;17.88;;;;;;;;;;10365440;28;20801;-81
2022/03/29 13:00:19;;;;;;;21.73;17.80;;;;;;;;;;10364172;28;20449;-81
2022/03/29 13:05:24;;;;;;;24.27;17.80;;;;;;;;;;10360034;28;20411;-81
2022/03/29 13:10:34;;;;;;;22.60;17.20;;;;;;;;;;10360561;28;20442;-81
2022/03/29 13:15:46;;;;;;;20.97;17.10;;;;;;;;;;10358525;28;20410;-81
2022/03/29 13:20:50;;;;;;;24.13;17.38;;;;;;;;;;10358617;28;20438;-81
2022/03/29 13:25:52;;;;;;;24.10;18.13;;;;;;;;;;10355486;28;20427;-81
2022/03/29 13:30:54;;;;;;;25.27;18.90;;;;;;;;;;10354867;28;20977;-81
2022/03/29 13:35:57;;;;;;;22.33;18.13;;;;;;;;;;10359302;28;20533;-81
2022/03/29 13:40:59;;;;;;;21.48;17.35;;;;;;;;;;10362101;28;20472;-80
2022/03/29 13:46:01;;;;;;;23.10;17.60;;;;;;;;;;10358573;28;20424;-80
2022/03/29 13:51:08;;;;;;;21.92;17.33;;;;;;;;;;10360740;28;20418;-80
2022/03/29 13:56:10;;;;;;;21.00;17.60;;;;;;;;;;10361282;28;20415;-80
2022/03/29 14:01:12;;;;;;;22.75;17.55;;;;;;;;;;10359114;28;20434;-81
2022/03/29 14:06:15;;;;;;;23.52;17.08;;;;;;;;;;10359820;28;20533;-80
2022/03/29 14:11:17;;;;;;;23.52;17.15;;;;;;;;;;10363560;28;20506;-81
2022/03/29 14:16:20;;;;;;;24.02;16.80;;;;;;;;;;10369762;28;20949;-80
2022/03/29 14:21:23;;;;;;;22.40;16.73;;;;;;;;;;10368768;28;20426;-80
2022/03/29 14:26:25;;;;;;;21.17;17.80;;;;;;;;;;10369240;28;20748;-80
2022/03/29 14:31:27;;;;;;;19.98;16.50;;;;;;;;;;10367663;28;20831;-81
2022/03/29 14:36:30;;;;;;;21.65;16.63;;;;;;;;;;10366998;28;20407;-80
2022/03/29 14:41:32;;;;;;;20.40;16.25;;;;;;;;;;10368176;28;20969;-81
2022/03/29 14:46:34;;;;;;;23.17;16.77;;;;;;;;;;10366673;28;20496;-80
2022/03/29 14:51:37;;;;;;;22.08;16.45;;;;;;;;;;10367526;28;20411;-80
2022/03/29 14:56:39;;;;;;;23.60;16.58;;;;;;;;;;10367326;28;20393;-81
2022/03/29 15:01:41;;;;;;;18.45;16.13;;;;;;;;;;10366991;28;20742;-80
2022/03/29 15:06:44;;;;;;;22.77;16.13;;;;;;;;;;10366483;28;20408;-80
2022/03/29 15:11:46;;;;;;;23.80;16.50;;;;;;;;;;10364065;28;20409;-81
2022/03/29 15:16:48;;;;;;;24.67;17.08;;;;;;;;;;10365743;28;20494;-80
2022/03/29 15:21:52;;;;;;;23.73;16.40;;;;;;;;;;10367276;28;20922;-80
2022/03/29 15:26:54;;;;;;;21.42;16.02;;;;;;;;;;10365451;28;20785;-80
2022/03/29 15:31:56;;;;;;;23.53;16.70;;;;;;;;;;10364811;28;20411;-81
2022/03/29 15:37:00;;;;;;;22.45;16.58;;;;;;;;;;10366656;28;20407;-80
2022/03/29 15:42:07;;;;;;;20.25;16.90;;;;;;;;;;10372405;28;20428;-81
2022/03/29 15:47:10;;;;;;;20.93;15.80;;;;;;;;;;10371184;28;20442;-79
2022/03/29 15:52:13;;;;;;;25.33;17.23;;;;;;;;;;10365115;28;20429;-80
2022/03/29 15:57:16;;;;;;;21.30;16.63;;;;;;;;;;10371560;28;20411;-79
2022/03/29 16:02:18;;;;;;;21.90;16.30;;;;;;;;;;10367665;28;20414;-80
2022/03/29 16:07:21;;;;;;;19.95;15.70;;;;;;;;;;10371788;28;20806;-80
2022/03/29 16:12:23;;;;;;;20.97;15.60;;;;;;;;;;10363389;28;20415;-80
2022/03/29 16:17:26;;;;;;;20.05;16.08;;;;;;;;;;10358843;28;20799;-81
2022/03/29 16:22:29;;;;;;;18.60;15.10;;;;;;;;;;10355742;28;20421;-79
2022/03/29 16:27:32;;;;;;;18.48;15.10;;;;;;;;;;10354068;28;20541;-81
2022/03/29 16:32:34;;;;;;;21.95;16.05;;;;;;;;;;10367726;28;20444;-80
2022/03/29 16:37:37;;;;;;;20.67;15.95;;;;;;;;;;10370701;28;20746;-80
2022/03/29 16:42:39;;;;;;;22.80;16.30;;;;;;;;;;10363884;28;20492;-79
2022/03/29 16:47:41;;;;;;;21.95;15.65;;;;;;;;;;10356033;28;20419;-80
2022/03/29 16:52:44;;;;;;;20.97;14.07;;;;;;;;;;10363434;28;20500;-79
2022/03/29 16:57:47;;;;;;;18.98;13.23;;;;;;;;;;10371064;28;20429;-80
2022/03/29 17:02:49;;;;;;;21.25;12.65;;;;;;;;;;10361232;28;20477;-80
2022/03/29 17:07:53;;;;;;;20.00;12.47;;;;;;;;;;10359567;28;20426;-81
2022/03/29 17:12:54;;;;;;;20.63;13.00;;;;;;;;;;10359392;28;20641;-81
2022/03/29 17:17:58;;;;;;;20.08;12.88;;;;;;;;;;10365830;28;20849;-80
2022/03/29 17:23:01;;;;;;;17.88;12.30;;;;;;;;;;10361060;28;20771;-81
2022/03/29 17:28:03;;;;;;;19.92;12.50;;;;;;;;;;10366522;28;20409;-80
2022/03/29 17:33:06;;;;;;;19.33;13.38;;;;;;;;;;10354798;28;20423;-80
2022/03/29 17:38:09;;;;;;;19.03;14.13;;;;;;;;;;10362460;28;20421;-81
2022/03/29 17:43:11;;;;;;;23.33;14.65;;;;;;;;;;10356021;28;20418;-81
2022/03/29 17:48:13;;;;;;;22.53;14.63;;;;;;;;;;10356606;28;20945;-80
2022/03/29 17:53:16;;;;;;;24.60;14.60;;;;;;;;;;10374549;28;20426;-80
2022/03/29 17:58:18;;;;;;;23.88;13.98;;;;;;;;;;10348810;28;20426;-81
2022/03/29 18:03:20;;;;;;;21.63;14.20;;;;;;;;;;10356593;28;20419;-81
2022/03/29 18:08:23;;;;;;;23.73;14.85;;;;;;;;;;10352831;28;20522;-80
2022/03/29 18:13:26;;;;;;;22.83;15.20;;;;;;;;;;10361552;28;20437;-80
2022/03/29 18:18:28;;;;;;;22.08;14.02;;;;;;;;;;10360252;28;20419;-80
2022/03/29 18:23:31;;;;;;;22.52;14.38;;;;;;;;;;10369962;28;20851;-81
2022/03/29 18:28:34;;;;;;;24.15;14.65;;;;;;;;;;10375841;28;20413;-80
2022/03/29 18:33:36;;;;;;;21.38;14.13;;;;;;;;;;10359376;28;20435;-80
2022/03/29 18:38:42;;;;;;;24.20;15.82;;;;;;;;;;10364467;28;20782;-80
2022/03/29 18:43:44;;;;;;;27.40;17.77;;;;;;;;;;10365604;28;20507;-80
2022/03/29 18:48:46;;;;;;;26.63;18.58;;;;;;;;;;10354585;28;20427;-81
2022/03/29 18:53:49;;;;;;;29.90;19.57;;;;;;;;;;10359398;28;20580;-80
2022/03/29 18:58:51;;;;;;;30.65;20.90;;;;;;;;;;10360462;28;20852;-81
2022/03/29 19:03:53;;;;;;;33.90;22.05;;;;;;;;;;10363235;28;20435;-80
2022/03/29 19:08:56;;;;;;;29.43;21.47;;;;;;;;;;10365888;28;20904;-80
2022/03/29 19:13:58;;;;;;;34.17;22.57;;;;;;;;;;10357714;28;20919;-80
2022/03/29 19:19:00;;;;;;;35.95;24.50;;;;;;;;;;10357504;28;20427;-79
2022/03/29 19:24:03;;;;;;;37.47;25.70;;;;;;;;;;10366120;28;20801;-79
2022/03/29 19:29:05;;;;;;;49.67;35.60;;;;;;;;;;10364317;28;20998;-81
2022/03/29 19:34:07;;;;;;;38.87;27.90;;;;;;;;;;10358276;28;20679;-80
2022/03/29 19:39:39;;;;;;;42.55;29.92;;;;;;;;;;10359478;28;20512;-80
2022/03/29 19:44:45;;;;;;;43.47;31.33;;;;;;;;;;10358372;28;20621;-80
2022/03/29 19:49:47;;;;;;;47.10;34.92;;;;;;;;;;10355556;28;20939;-81
2022/03/29 19:54:52;;;;;;;47.72;34.33;;;;;;;;;;10360481;28;20786;-81
2022/03/29 19:59:54;;;;;;;47.25;34.10;;;;;;;;;;10359954;28;20462;-80
2022/03/29 20:04:58;;;;;;;47.30;33.87;;;;;;;;;;10355208;28;20465;-80
2022/03/29 20:10:03;;;;;;;49.85;34.95;;;;;;;;;;10353116;28;20749;-81
2022/03/29 20:15:06;;;;;;;49.08;35.95;;;;;;;;;;10350954;28;20430;-81
2022/03/29 20:20:10;;;;;;;46.60;33.20;;;;;;;;;;10335786;28;20706;-80
2022/03/29 20:25:13;;;;;;;51.47;35.08;;;;;;;;;;10352151;28;20891;-80
2022/03/29 20:30:15;;;;;;;49.67;34.78;;;;;;;;;;10355361;28;20418;-80
2022/03/29 20:35:17;;;;;;;48.38;34.67;;;;;;;;;;10358955;28;20465;-80
2022/03/29 20:40:21;;;;;;;49.43;35.30;;;;;;;;;;10361541;28;20482;-81
2022/03/29 20:45:23;;;;;;;48.97;35.00;;;;;;;;;;10354758;28;20415;-81
2022/03/29 20:50:25;;;;;;;50.80;35.30;;;;;;;;;;10359372;28;20761;-82
2022/03/29 20:55:29;;;;;;;53.03;35.33;;;;;;;;;;10353489;28;20415;-82
2022/03/29 21:00:30;;;;;;;54.15;36.05;;;;;;;;;;10350420;28;20790;-80
2022/03/29 21:05:33;;;;;;;56.05;36.33;;;;;;;;;;10351635;28;20520;-80
2022/03/29 21:10:36;;;;;;;53.90;36.67;;;;;;;;;;10349664;28;20854;-79
2022/03/29 21:15:38;;;;;;;53.53;36.42;;;;;;;;;;10348384;28;20407;-81
2022/03/29 21:20:41;;;;;;;52.38;36.00;;;;;;;;;;10350609;28;21058;-80
2022/03/29 21:25:45;;;;;;;59.47;37.67;;;;;;;;;;10358490;28;20795;-81
2022/03/29 21:30:47;;;;;;;56.42;36.58;;;;;;;;;;10359465;28;20407;-80
2022/03/29 21:35:49;;;;;;;52.77;35.93;;;;;;;;;;10355299;28;20839;-81
2022/03/29 21:40:52;;;;;;;54.38;34.95;;;;;;;;;;10365175;28;21140;-80
2022/03/29 21:45:54;;;;;;;55.20;36.42;;;;;;;;;;10370407;28;20411;-80
2022/03/29 21:50:56;;;;;;;56.30;35.92;;;;;;;;;;10370125;28;20421;-80
2022/03/29 21:56:00;;;;;;;52.67;34.75;;;;;;;;;;10369579;28;20411;-79
2022/03/29 22:01:03;;;;;;;51.83;34.30;;;;;;;;;;10368471;28;20425;-80
2022/03/29 22:06:04;;;;;;;47.80;32.55;;;;;;;;;;10371153;28;20826;-80
2022/03/29 22:11:08;;;;;;;48.73;31.67;;;;;;;;;;10368500;28;20406;-80
2022/03/29 22:16:10;;;;;;;47.92;30.88;;;;;;;;;;10370505;28;20475;-79
2022/03/29 22:21:11;;;;;;;43.00;29.50;;;;;;;;;;10370782;28;20497;-79
2022/03/29 22:26:15;;;;;;;45.20;28.95;;;;;;;;;;10364560;28;20519;-80
2022/03/29 22:31:17;;;;;;;44.42;28.88;;;;;;;;;;10355152;28;20806;-80
2022/03/29 22:36:19;;;;;;;38.53;26.98;;;;;;;;;;10361965;28;20779;-79
2022/03/29 22:41:22;;;;;;;40.30;26.75;;;;;;;;;;10365457;28;20768;-79
2022/03/29 22:46:24;;;;;;;42.15;27.50;;;;;;;;;;10364540;28;20417;-79
2022/03/29 22:51:25;;;;;;;36.93;25.93;;;;;;;;;;10364423;28;20414;-80
2022/03/29 23:01:54;;;;;;;38.08;24.73;;;;;;;;;;10346750;28;20423;-80
2022/03/29 23:06:56;;;;;;;37.92;25.15;;;;;;;;;;10355286;28;20852;-79
2022/03/29 23:11:59;;;;;;;33.65;23.60;;;;;;;;;;10357967;28;20490;-80
2022/03/29 23:17:01;;;;;;;35.58;24.80;;;;;;;;;;10357438;28;20407;-79
2022/03/29 23:22:04;;;;;;;38.33;23.87;;;;;;;;;;10369966;28;20441;-79
2022/03/29 23:27:08;;;;;;;36.30;24.33;;;;;;;;;;10357723;28;20411;-79
2022/03/29 23:32:10;;;;;;;38.10;23.63;;;;;;;;;;10357019;28;20774;-79
2022/03/29 23:37:12;;;;;;;34.95;22.67;;;;;;;;;;10356486;28;20411;-79
2022/03/29 23:42:15;;;;;;;31.23;22.17;;;;;;;;;;10351927;28;20518;-80
2022/03/29 23:47:17;;;;;;;34.65;21.67;;;;;;;;;;10353466;28;20407;-79
2022/03/29 23:52:19;;;;;;;37.00;22.73;;;;;;;;;;10355879;28;20411;-80
2022/03/29 23:57:22;;;;;;;35.60;22.38;;;;;;;;;;10371052;23;20519;-93
